createdAt,value
2017-09-17T00:00:18.347Z,8.50
2017-09-17T00:02:46.678Z,8.60
2017-09-17T00:05:14.263Z,8.50
2017-09-17T00:07:41.846Z,8.60
2017-09-17T00:10:09.405Z,8.60
2017-09-17T00:12:36.983Z,8.70
2017-09-17T00:15:04.547Z,8.70
2017-09-17T00:17:32.534Z,8.70
2017-09-17T00:20:00.079Z,8.70
2017-09-17T00:22:28.562Z,8.70
2017-09-17T00:24:56.192Z,8.70
2017-09-17T00:27:23.776Z,8.80
2017-09-17T00:29:51.355Z,8.80
2017-09-17T00:32:18.911Z,8.70
2017-09-17T00:34:46.499Z,8.70
2017-09-17T00:37:14.079Z,8.70
2017-09-17T00:39:42.478Z,8.70
2017-09-17T00:42:10.063Z,8.70
2017-09-17T00:44:37.634Z,8.80
2017-09-17T00:47:05.202Z,8.80
2017-09-17T00:49:32.792Z,8.80
2017-09-17T00:52:01.142Z,8.80
2017-09-17T00:54:29.017Z,8.80
2017-09-17T00:56:56.596Z,8.90
2017-09-17T00:59:24.935Z,8.90
2017-09-17T01:01:52.521Z,8.90
2017-09-17T01:04:20.867Z,8.90
2017-09-17T01:06:48.447Z,8.80
2017-09-17T01:09:16.038Z,8.90
2017-09-17T01:11:43.956Z,8.90
2017-09-17T01:14:13.028Z,8.90
2017-09-17T01:16:40.601Z,8.90
2017-09-17T01:19:08.176Z,8.90
2017-09-17T01:21:35.724Z,8.90
2017-09-17T01:24:03.291Z,8.90
2017-09-17T01:26:30.860Z,8.90
2017-09-17T01:28:58.420Z,8.80
2017-09-17T01:31:25.979Z,8.90
2017-09-17T01:33:53.592Z,8.90
2017-09-17T01:36:21.157Z,8.90
2017-09-17T01:38:49.047Z,8.90
2017-09-17T01:41:16.640Z,8.90
2017-09-17T01:43:45.004Z,8.90
2017-09-17T01:46:12.608Z,8.90
2017-09-17T01:48:40.164Z,9.00
2017-09-17T01:51:07.768Z,9.00
2017-09-17T01:53:35.329Z,8.90
2017-09-17T01:56:02.917Z,8.90
2017-09-17T01:58:31.253Z,9.00
2017-09-17T02:00:59.109Z,8.90
2017-09-17T02:03:26.669Z,8.90
2017-09-17T02:05:54.255Z,8.90
2017-09-17T02:08:21.853Z,8.90
2017-09-17T02:10:49.429Z,8.90
2017-09-17T02:13:17.008Z,8.90
2017-09-17T02:15:44.582Z,8.90
2017-09-17T02:18:12.434Z,8.90
2017-09-17T02:20:40.018Z,8.90
2017-09-17T02:23:07.575Z,8.90
2017-09-17T02:25:35.160Z,8.90
2017-09-17T02:28:03.498Z,8.90
2017-09-17T02:30:31.072Z,8.90
2017-09-17T02:32:58.628Z,8.90
2017-09-17T02:35:26.225Z,8.90
2017-09-17T02:37:53.809Z,8.90
2017-09-17T02:40:21.400Z,8.90
2017-09-17T02:42:48.973Z,8.90
2017-09-17T02:45:16.921Z,8.90
2017-09-17T02:47:44.505Z,8.90
2017-09-17T02:50:12.849Z,8.90
2017-09-17T02:52:40.420Z,8.90
2017-09-17T02:55:08.001Z,8.90
2017-09-17T02:57:36.330Z,9.00
2017-09-17T03:00:03.922Z,8.90
2017-09-17T03:02:31.496Z,9.00
2017-09-17T03:04:59.831Z,9.00
2017-09-17T03:07:27.441Z,9.00
2017-09-17T03:09:55.757Z,8.90
2017-09-17T03:12:23.346Z,8.90
2017-09-17T03:14:50.911Z,8.80
2017-09-17T03:17:18.879Z,8.90
2017-09-17T03:19:46.455Z,8.90
2017-09-17T03:22:14.796Z,8.90
2017-09-17T03:24:42.392Z,8.90
2017-09-17T03:27:10.737Z,8.90
2017-09-17T03:29:38.324Z,8.90
2017-09-17T03:32:06.662Z,9.00
2017-09-17T03:34:34.238Z,8.90
2017-09-17T03:37:01.811Z,9.00
2017-09-17T03:39:29.714Z,9.00
2017-09-17T03:41:57.287Z,9.00
2017-09-17T03:44:24.937Z,9.00
2017-09-17T03:46:52.509Z,9.00
2017-09-17T03:49:20.069Z,9.00
2017-09-17T03:51:47.654Z,9.10
2017-09-17T03:54:15.217Z,9.00
2017-09-17T03:56:42.794Z,9.00
2017-09-17T03:59:10.360Z,9.00
2017-09-17T04:01:38.976Z,9.00
2017-09-17T04:04:06.542Z,9.00
2017-09-17T04:06:34.105Z,9.10
2017-09-17T04:09:01.683Z,9.10
2017-09-17T04:11:29.247Z,9.00
2017-09-17T04:13:56.831Z,9.10
2017-09-17T04:16:25.173Z,9.00
2017-09-17T04:18:52.759Z,9.00
2017-09-17T04:21:30.782Z,9.10
2017-09-17T04:23:59.118Z,9.10
2017-09-17T04:26:26.695Z,9.10
2017-09-17T04:28:54.546Z,9.00
2017-09-17T04:31:22.115Z,9.10
2017-09-17T04:33:49.666Z,9.10
2017-09-17T04:36:17.257Z,9.00
2017-09-17T04:38:44.823Z,9.00
2017-09-17T04:41:13.242Z,9.00
2017-09-17T04:43:40.803Z,9.00
2017-09-17T04:46:08.376Z,9.00
2017-09-17T04:48:35.953Z,9.00
2017-09-17T04:51:03.556Z,9.00
2017-09-17T04:53:31.232Z,9.00
2017-09-17T04:55:59.061Z,9.00
2017-09-17T04:58:27.378Z,8.90
2017-09-17T05:00:54.951Z,8.90
2017-09-17T05:03:22.543Z,8.90
2017-09-17T05:05:50.157Z,8.90
2017-09-17T05:08:17.733Z,8.90
2017-09-17T05:10:46.070Z,8.90
2017-09-17T05:13:13.654Z,8.90
2017-09-17T05:15:41.213Z,8.90
2017-09-17T05:18:08.780Z,8.90
2017-09-17T05:20:36.353Z,8.90
2017-09-17T05:23:04.217Z,8.80
2017-09-17T05:25:31.780Z,8.90
2017-09-17T05:27:59.359Z,8.90
2017-09-17T05:30:26.940Z,8.80
2017-09-17T05:32:55.280Z,8.80
2017-09-17T05:35:22.855Z,8.80
2017-09-17T05:37:50.424Z,8.80
2017-09-17T05:40:18.770Z,8.80
2017-09-17T05:42:46.325Z,8.80
2017-09-17T05:45:13.898Z,8.80
2017-09-17T05:47:41.458Z,8.80
2017-09-17T05:50:09.406Z,8.90
2017-09-17T05:52:36.975Z,8.90
2017-09-17T05:55:04.531Z,9.00
2017-09-17T05:57:32.133Z,9.10
2017-09-17T06:00:00.452Z,9.20
2017-09-17T06:02:28.035Z,9.20
2017-09-17T06:04:55.603Z,9.20
2017-09-17T06:07:23.171Z,9.20
2017-09-17T06:09:50.744Z,9.30
2017-09-17T06:12:19.350Z,9.40
2017-09-17T06:14:46.917Z,9.40
2017-09-17T06:17:14.490Z,9.40
2017-09-17T06:19:42.071Z,9.40
2017-09-17T06:22:09.662Z,9.50
2017-09-17T06:24:38.017Z,9.60
2017-09-17T06:27:05.586Z,9.50
2017-09-17T06:29:33.924Z,9.70
2017-09-17T06:32:01.513Z,9.60
2017-09-17T06:34:29.374Z,9.70
2017-09-17T06:36:56.960Z,9.80
2017-09-17T06:39:25.313Z,9.90
2017-09-17T06:41:52.897Z,9.90
2017-09-17T06:44:21.226Z,9.90
2017-09-17T06:46:48.815Z,9.90
2017-09-17T06:49:16.378Z,9.90
2017-09-17T06:51:44.729Z,9.90
2017-09-17T06:54:12.315Z,9.90
2017-09-17T06:56:40.928Z,9.90
2017-09-17T06:59:08.503Z,9.90
2017-09-17T07:01:36.077Z,10.00
2017-09-17T07:04:03.649Z,10.00
2017-09-17T07:06:31.234Z,10.10
2017-09-17T07:08:58.824Z,10.20
2017-09-17T07:11:26.430Z,10.20
2017-09-17T07:13:55.010Z,10.30
2017-09-17T07:16:22.594Z,10.40
2017-09-17T07:18:50.478Z,10.40
2017-09-17T07:21:18.824Z,10.40
2017-09-17T07:23:46.425Z,10.40
2017-09-17T07:26:14.040Z,10.50
2017-09-17T07:28:41.631Z,10.50
2017-09-17T07:31:09.973Z,10.60
2017-09-17T07:33:37.555Z,10.70
2017-09-17T07:36:05.913Z,10.80
2017-09-17T07:38:33.877Z,10.80
2017-09-17T07:41:01.441Z,10.80
2017-09-17T07:43:29.013Z,10.80
2017-09-17T07:45:57.373Z,10.80
2017-09-17T07:48:25.077Z,10.80
2017-09-17T07:50:52.690Z,10.80
2017-09-17T07:53:20.290Z,10.70
2017-09-17T07:55:48.659Z,10.90
2017-09-17T07:58:17.038Z,10.90
2017-09-17T08:00:45.694Z,11.00
2017-09-17T08:03:13.294Z,11.00
2017-09-17T08:05:40.903Z,11.00
2017-09-17T08:08:08.520Z,11.00
2017-09-17T08:10:36.168Z,10.90
2017-09-17T08:13:04.523Z,10.90
2017-09-17T08:15:32.115Z,10.90
2017-09-17T08:17:59.733Z,11.10
2017-09-17T08:20:27.331Z,11.20
2017-09-17T08:22:55.211Z,11.30
2017-09-17T08:25:22.823Z,11.40
2017-09-17T08:27:50.398Z,11.40
2017-09-17T08:30:17.989Z,11.50
2017-09-17T08:32:45.585Z,11.50
2017-09-17T08:35:13.174Z,11.50
2017-09-17T08:37:41.517Z,11.50
2017-09-17T08:40:09.899Z,11.60
2017-09-17T08:42:37.854Z,11.60
2017-09-17T08:45:05.747Z,11.60
2017-09-17T08:47:33.329Z,11.70
2017-09-17T08:50:01.665Z,11.90
2017-09-17T08:52:29.817Z,11.80
2017-09-17T08:54:57.407Z,12.00
2017-09-17T08:57:25.924Z,12.00
2017-09-17T08:59:54.286Z,12.10
2017-09-17T09:02:21.887Z,12.00
2017-09-17T09:04:49.514Z,12.10
2017-09-17T09:07:18.196Z,12.20
2017-09-17T09:09:46.582Z,12.20
2017-09-17T09:12:14.942Z,12.30
2017-09-17T09:14:42.563Z,12.30
2017-09-17T09:17:10.146Z,12.30
2017-09-17T09:19:37.722Z,12.30
2017-09-17T09:22:05.327Z,12.30
2017-09-17T09:24:33.217Z,12.20
2017-09-17T09:27:00.780Z,12.30
2017-09-17T09:29:29.154Z,12.50
2017-09-17T09:31:56.743Z,12.40
2017-09-17T09:34:24.323Z,12.60
2017-09-17T09:36:52.947Z,12.70
2017-09-17T09:39:20.539Z,12.60
2017-09-17T09:41:48.142Z,12.80
2017-09-17T09:44:16.510Z,12.70
2017-09-17T09:46:44.111Z,12.70
2017-09-17T09:49:12.027Z,12.70
2017-09-17T09:51:40.369Z,12.40
2017-09-17T09:54:08.074Z,12.40
2017-09-17T09:56:36.711Z,12.80
2017-09-17T09:59:04.678Z,12.70
2017-09-17T10:01:32.262Z,12.90
2017-09-17T10:03:59.875Z,13.00
2017-09-17T10:06:27.775Z,13.20
2017-09-17T10:08:55.342Z,13.20
2017-09-17T10:11:22.901Z,13.40
2017-09-17T10:13:57.112Z,13.50
2017-09-17T10:16:24.714Z,13.60
2017-09-17T10:18:52.568Z,13.60
2017-09-17T10:21:25.955Z,13.70
2017-09-17T10:23:57.958Z,14.00
2017-09-17T10:26:25.716Z,14.00
2017-09-17T10:28:53.381Z,14.20
2017-09-17T10:31:20.969Z,14.40
2017-09-17T10:33:48.536Z,14.40
2017-09-17T10:36:16.164Z,14.30
2017-09-17T10:38:43.727Z,14.20
2017-09-17T10:41:11.615Z,14.00
2017-09-17T10:43:39.222Z,14.00
2017-09-17T10:46:06.789Z,14.10
2017-09-17T10:48:34.408Z,14.30
2017-09-17T10:51:01.993Z,14.30
2017-09-17T10:53:31.637Z,14.40
2017-09-17T10:55:59.201Z,14.40
2017-09-17T10:58:26.856Z,14.30
2017-09-17T11:00:54.431Z,14.40
2017-09-17T11:03:22.320Z,14.60
2017-09-17T11:05:50.765Z,14.70
2017-09-17T11:08:18.343Z,14.90
2017-09-17T11:10:46.694Z,15.10
2017-09-17T11:13:14.271Z,15.10
2017-09-17T11:15:41.875Z,15.10
2017-09-17T11:18:10.230Z,15.70
2017-09-17T11:20:38.195Z,15.70
2017-09-17T11:23:05.795Z,15.70
2017-09-17T11:25:34.117Z,15.80
2017-09-17T11:28:01.712Z,15.80
2017-09-17T11:30:30.044Z,16.40
2017-09-17T11:32:57.631Z,16.40
2017-09-17T11:35:25.215Z,16.20
2017-09-17T11:37:53.068Z,16.10
2017-09-17T11:40:21.420Z,15.90
2017-09-17T11:42:48.976Z,15.90
2017-09-17T11:45:16.553Z,15.90
2017-09-17T11:47:44.152Z,15.70
2017-09-17T11:50:11.743Z,16.00
2017-09-17T11:52:39.385Z,15.80
2017-09-17T11:55:07.282Z,15.90
2017-09-17T11:57:34.858Z,15.80
2017-09-17T12:00:02.425Z,15.80
2017-09-17T12:02:30.782Z,15.70
2017-09-17T12:04:58.378Z,15.70
2017-09-17T12:07:26.733Z,16.40
2017-09-17T12:09:54.294Z,16.30
2017-09-17T12:12:22.225Z,16.50
2017-09-17T12:14:49.803Z,16.20
2017-09-17T12:17:17.389Z,16.30
2017-09-17T12:19:45.746Z,15.90
2017-09-17T12:22:13.318Z,15.90
2017-09-17T12:24:44.065Z,15.90
2017-09-17T12:27:12.411Z,15.90
2017-09-17T12:29:40.283Z,15.90
2017-09-17T12:32:07.879Z,15.80
2017-09-17T12:34:35.542Z,15.80
2017-09-17T12:37:04.245Z,15.60
2017-09-17T12:39:31.814Z,15.60
2017-09-17T12:42:00.243Z,15.50
2017-09-17T12:44:28.566Z,15.80
2017-09-17T12:46:56.174Z,15.70
2017-09-17T12:49:23.760Z,15.80
2017-09-17T12:51:51.657Z,15.90
2017-09-17T12:54:19.215Z,16.10
2017-09-17T12:56:46.793Z,16.00
2017-09-17T12:59:15.159Z,16.40
2017-09-17T13:01:42.780Z,16.40
2017-09-17T13:04:10.340Z,16.90
2017-09-17T13:06:37.925Z,17.40
2017-09-17T13:09:05.908Z,17.80
2017-09-17T13:11:33.463Z,18.40
2017-09-17T13:14:01.028Z,18.60
2017-09-17T13:16:28.618Z,18.80
2017-09-17T13:18:56.282Z,18.50
2017-09-17T13:21:23.898Z,18.40
2017-09-17T13:23:51.493Z,18.00
2017-09-17T13:26:19.093Z,17.80
2017-09-17T13:28:46.654Z,18.20
2017-09-17T13:31:14.289Z,18.10
2017-09-17T13:33:43.555Z,18.40
2017-09-17T13:36:11.570Z,18.40
2017-09-17T13:38:39.142Z,18.80
2017-09-17T13:41:06.710Z,18.50
2017-09-17T13:43:34.299Z,18.90
2017-09-17T13:46:01.890Z,18.70
2017-09-17T13:48:30.267Z,18.00
2017-09-17T13:50:58.641Z,17.80
2017-09-17T13:53:27.920Z,17.50
2017-09-17T13:55:56.322Z,17.00
2017-09-17T13:58:23.908Z,16.90
2017-09-17T14:00:51.537Z,16.80
2017-09-17T14:06:38.512Z,16.30
2017-09-17T14:09:08.731Z,16.00
2017-09-17T14:11:36.311Z,15.70
2017-09-17T14:14:04.679Z,15.50
2017-09-17T14:16:32.260Z,15.40
2017-09-17T14:19:00.163Z,15.30
2017-09-17T14:21:27.754Z,15.30
2017-09-17T14:23:55.343Z,15.20
2017-09-17T14:26:22.932Z,15.00
2017-09-17T14:28:50.527Z,14.70
2017-09-17T14:31:18.136Z,14.70
2017-09-17T14:33:45.786Z,14.70
2017-09-17T14:36:14.135Z,15.00
2017-09-17T14:38:41.733Z,15.00
2017-09-17T14:41:09.323Z,15.20
2017-09-17T14:43:36.940Z,15.50
2017-09-17T14:46:04.896Z,16.30
2017-09-17T14:48:33.233Z,19.50
2017-09-17T14:51:00.855Z,19.40
2017-09-17T14:53:28.638Z,19.30
2017-09-17T14:55:56.235Z,18.60
2017-09-17T14:58:23.867Z,17.70
2017-09-17T15:00:51.508Z,17.00
2017-09-17T15:03:19.160Z,16.80
2017-09-17T15:05:46.763Z,16.30
2017-09-17T15:08:14.406Z,16.00
2017-09-17T15:10:42.803Z,16.00
2017-09-17T15:13:11.558Z,16.00
2017-09-17T15:15:39.176Z,16.00
2017-09-17T15:18:06.771Z,16.30
2017-09-17T15:20:34.377Z,17.80
2017-09-17T15:23:01.984Z,19.70
2017-09-17T15:25:29.582Z,20.50
2017-09-17T15:27:57.177Z,21.70
2017-09-17T15:30:25.580Z,23.30
2017-09-17T15:32:53.163Z,23.30
2017-09-17T15:35:20.761Z,23.30
2017-09-17T15:37:48.353Z,23.40
2017-09-17T15:40:18.125Z,23.90
2017-09-17T15:42:45.768Z,24.20
2017-09-17T15:45:13.411Z,24.60
2017-09-17T15:47:41.050Z,24.60
2017-09-17T15:50:08.649Z,24.80
2017-09-17T15:52:36.251Z,24.70
2017-09-17T15:55:04.625Z,24.70
2017-09-17T15:57:32.998Z,25.40
2017-09-17T16:00:01.417Z,25.60
2017-09-17T16:02:29.293Z,25.60
2017-09-17T16:04:56.883Z,25.80
2017-09-17T16:07:24.474Z,25.60
2017-09-17T16:09:52.896Z,24.80
2017-09-17T16:12:20.528Z,24.70
2017-09-17T16:14:48.118Z,23.50
2017-09-17T16:17:16.496Z,21.30
2017-09-17T16:19:44.376Z,21.30
2017-09-17T16:22:12.745Z,20.10
2017-09-17T16:24:40.326Z,20.00
2017-09-17T16:27:08.760Z,18.20
2017-09-17T16:29:36.347Z,18.10
2017-09-17T16:32:03.941Z,17.20
2017-09-17T16:34:32.298Z,16.20
2017-09-17T16:36:59.925Z,16.10
2017-09-17T16:39:27.498Z,15.60
2017-09-17T16:41:55.102Z,15.40
2017-09-17T16:44:23.490Z,15.00
2017-09-17T16:46:52.108Z,15.00
2017-09-17T16:49:19.664Z,14.90
2017-09-17T16:51:47.222Z,14.90
2017-09-17T16:54:14.871Z,14.80
2017-09-17T16:56:42.473Z,14.80
2017-09-17T16:59:10.052Z,14.60
2017-09-17T17:01:38.391Z,14.60
2017-09-17T17:04:05.974Z,14.50
2017-09-17T17:06:33.540Z,14.50
2017-09-17T17:09:01.490Z,14.40
2017-09-17T17:11:29.052Z,14.40
2017-09-17T17:13:56.658Z,14.30
2017-09-17T17:16:24.261Z,14.20
2017-09-17T17:18:52.609Z,13.90
2017-09-17T17:21:20.200Z,13.90
2017-09-17T17:23:48.579Z,13.70
2017-09-17T17:26:16.179Z,13.70
2017-09-17T17:28:44.519Z,13.50
2017-09-17T17:31:12.391Z,13.40
2017-09-17T17:33:39.994Z,13.30
2017-09-17T17:36:07.622Z,13.20
2017-09-17T17:38:35.226Z,13.20
2017-09-17T17:41:02.833Z,13.00
2017-09-17T17:43:30.496Z,12.90
2017-09-17T17:45:58.186Z,12.80
2017-09-17T17:48:26.881Z,12.60
2017-09-17T17:50:54.476Z,12.60
2017-09-17T17:53:22.078Z,12.50
2017-09-17T17:55:50.496Z,12.40
2017-09-17T17:58:18.081Z,12.40
2017-09-17T18:00:45.688Z,12.30
2017-09-17T18:03:13.266Z,12.20
2017-09-17T18:05:40.854Z,12.10
2017-09-17T18:08:08.443Z,12.00
2017-09-17T18:10:36.316Z,12.00
2017-09-17T18:13:03.876Z,11.90
2017-09-17T18:15:31.464Z,11.80
2017-09-17T18:17:59.286Z,11.80
2017-09-17T18:20:26.962Z,11.70
2017-09-17T18:22:55.494Z,11.60
2017-09-17T18:25:23.062Z,11.60
2017-09-17T18:27:50.654Z,11.60
2017-09-17T18:30:18.268Z,11.50
2017-09-17T18:32:45.848Z,11.40
2017-09-17T18:35:13.447Z,11.40
2017-09-17T18:37:42.095Z,11.20
2017-09-17T18:40:09.835Z,11.20
2017-09-17T18:42:37.443Z,11.20
2017-09-17T18:45:05.170Z,11.10
2017-09-17T18:47:32.748Z,11.10
2017-09-17T18:50:00.347Z,11.00
2017-09-17T18:52:28.684Z,10.90
2017-09-17T18:54:56.296Z,10.90
2017-09-17T18:57:23.861Z,10.90
2017-09-17T18:59:51.473Z,10.80
2017-09-17T19:02:19.075Z,10.80
2017-09-17T19:04:47.011Z,10.80
2017-09-17T19:07:14.598Z,10.70
2017-09-17T19:09:42.262Z,10.70
2017-09-17T19:12:09.877Z,10.70
2017-09-17T19:14:37.463Z,10.70
2017-09-17T19:17:05.863Z,10.70
2017-09-17T19:19:33.442Z,10.70
2017-09-17T19:22:01.017Z,10.60
2017-09-17T19:24:28.655Z,10.60
2017-09-17T19:26:56.581Z,10.60
2017-09-17T19:29:24.915Z,10.60
2017-09-17T19:31:52.501Z,10.50
2017-09-17T19:34:20.323Z,10.60
2017-09-17T19:36:47.907Z,10.60
2017-09-17T19:39:15.501Z,10.60
2017-09-17T19:41:43.837Z,10.50
2017-09-17T19:44:11.435Z,10.50
2017-09-17T19:46:41.231Z,10.50
2017-09-17T19:49:08.864Z,10.50
2017-09-17T19:51:36.454Z,10.60
2017-09-17T19:54:04.077Z,10.50
2017-09-17T19:56:31.647Z,10.40
2017-09-17T19:58:59.807Z,10.30
2017-09-17T20:01:27.568Z,10.30
2017-09-17T20:03:55.154Z,10.30
2017-09-17T20:06:22.768Z,10.40
2017-09-17T20:08:50.945Z,10.40
2017-09-17T20:11:18.564Z,10.40
2017-09-17T20:13:46.145Z,10.40
2017-09-17T20:16:14.545Z,10.50
2017-09-17T20:18:42.145Z,10.50
2017-09-17T20:21:10.100Z,10.50
2017-09-17T20:23:39.101Z,10.50
2017-09-17T20:26:06.673Z,10.50
2017-09-17T20:28:34.273Z,10.40
2017-09-17T20:31:01.873Z,10.50
2017-09-17T20:33:30.376Z,10.40
2017-09-17T20:35:57.992Z,10.40
2017-09-17T20:38:25.582Z,10.40
2017-09-17T20:40:53.155Z,10.40
2017-09-17T20:43:20.900Z,10.40
2017-09-17T20:45:48.469Z,10.40
2017-09-17T20:48:16.427Z,10.30
2017-09-17T20:50:44.016Z,10.40
2017-09-17T20:53:12.446Z,10.30
2017-09-17T20:55:40.537Z,10.30
2017-09-17T20:58:08.129Z,10.40
2017-09-17T21:00:36.489Z,10.20
2017-09-17T21:03:04.071Z,10.30
2017-09-17T21:05:33.003Z,10.20
2017-09-17T21:08:00.593Z,10.20
2017-09-17T21:10:28.183Z,10.20
2017-09-17T21:12:56.653Z,10.10
2017-09-17T21:15:24.999Z,10.10
2017-09-17T21:17:52.942Z,10.10
2017-09-17T21:20:20.546Z,10.10
2017-09-17T21:22:48.123Z,10.00
2017-09-17T21:25:16.482Z,9.90
2017-09-17T21:27:44.058Z,10.00
2017-09-17T21:30:12.500Z,9.90
2017-09-17T21:32:40.546Z,9.90
2017-09-17T21:35:08.119Z,9.90
2017-09-17T21:37:35.676Z,9.80
2017-09-17T21:40:03.389Z,9.80
2017-09-17T21:42:31.024Z,9.80
2017-09-17T21:44:58.809Z,9.80
2017-09-17T21:47:26.421Z,9.70
2017-09-17T21:49:54.340Z,9.70
2017-09-17T21:52:22.812Z,9.60
2017-09-17T21:54:51.175Z,9.60
2017-09-17T21:57:19.101Z,9.60
2017-09-17T21:59:46.696Z,9.60
2017-09-17T22:02:14.265Z,9.60
2017-09-17T22:04:41.831Z,9.60
2017-09-17T22:07:10.187Z,9.50
2017-09-17T22:09:37.746Z,9.50
2017-09-17T22:12:05.691Z,9.40
2017-09-17T22:14:33.263Z,9.30
2017-09-17T22:17:00.820Z,9.30
2017-09-17T22:19:28.405Z,9.30
2017-09-17T22:21:55.972Z,9.30
2017-09-17T22:24:23.563Z,9.20
2017-09-17T22:26:51.118Z,9.30
2017-09-17T22:29:19.011Z,9.20
2017-09-17T22:31:46.711Z,9.20
2017-09-17T22:34:14.349Z,9.30
2017-09-17T22:36:41.943Z,9.30
2017-09-17T22:39:10.273Z,9.30
2017-09-17T22:41:37.845Z,9.30
2017-09-17T22:44:05.431Z,9.30
2017-09-17T22:46:32.997Z,9.30
2017-09-17T22:49:01.337Z,9.30
2017-09-17T22:51:29.492Z,9.30
2017-09-17T22:53:57.067Z,9.40
2017-09-17T22:56:24.629Z,9.40
2017-09-17T22:58:52.201Z,9.40
2017-09-17T23:01:19.778Z,9.40
2017-09-17T23:03:48.117Z,9.40
2017-09-17T23:06:15.689Z,9.40
2017-09-17T23:08:43.346Z,9.40
2017-09-17T23:11:10.938Z,9.40
2017-09-17T23:13:39.371Z,9.40
2017-09-17T23:16:06.934Z,9.30
2017-09-17T23:18:34.493Z,9.40
2017-09-17T23:21:02.096Z,9.40
2017-09-17T23:23:30.443Z,9.50
2017-09-17T23:25:58.015Z,9.50
2017-09-17T23:28:25.579Z,9.50
2017-09-17T23:30:53.159Z,9.50
2017-09-17T23:33:21.576Z,9.50
2017-09-17T23:35:49.143Z,9.50
2017-09-17T23:38:16.707Z,9.60
2017-09-17T23:40:44.651Z,9.60
2017-09-17T23:43:12.237Z,9.60
2017-09-17T23:45:39.896Z,9.60
2017-09-17T23:48:07.549Z,9.60
2017-09-17T23:50:35.124Z,9.70
2017-09-17T23:53:02.688Z,9.60
2017-09-17T23:55:30.251Z,9.70
2017-09-17T23:57:57.812Z,9.60
